Time;durP1;ratioP1;P1;durP2;ratioP2;P2;SDS_P1;SDS_P2;PMS_P1;PMS_P2;Temp;Humidity;BMP_temperature;BMP_pressure;BME280_temperature;BME280_humidity;BME280_pressure;Samples;Min_cycle;Max_cycle;Signal;HPM_P1;HPM_P2
2022/03/18 00:00:23;;;;;;;46.40;24.52;;;;;;;4.55;62.62;103234.88;4963345;28;20451;-52
2022/03/18 00:02:50;;;;;;;48.78;26.52;;;;;;;4.54;63.07;103230.53;4963828;28;20050;-53
2022/03/18 00:05:17;;;;;;;45.78;25.92;;;;;;;4.53;62.78;103236.47;4964052;28;20121;-52
2022/03/18 00:07:46;;;;;;;45.55;25.15;;;;;;;4.53;62.76;103244.19;4964342;28;20043;-53
2022/03/18 00:10:13;;;;;;;45.55;26.23;;;;;;;4.52;62.83;103242.41;4965804;28;20161;-54
2022/03/18 00:12:40;;;;;;;44.65;24.55;;;;;;;4.49;62.40;103247.38;4964013;28;20051;-53
2022/03/18 00:15:09;;;;;;;52.70;27.90;;;;;;;4.48;62.44;103245.59;4968195;28;20604;-52
2022/03/18 00:17:35;;;;;;;50.13;27.98;;;;;;;4.47;62.77;103243.84;4967811;28;20398;-53
2022/03/18 00:20:02;;;;;;;42.25;24.25;;;;;;;4.46;62.63;103247.22;4968875;28;20049;-53
2022/03/18 00:22:29;;;;;;;44.55;26.30;;;;;;;4.42;62.91;103249.59;4968253;28;20057;-49
2022/03/18 00:24:57;;;;;;;44.13;25.95;;;;;;;4.42;62.64;103253.84;4968288;28;20046;-51
2022/03/18 00:27:26;;;;;;;45.45;25.27;;;;;;;4.40;62.42;103247.75;4966520;28;20173;-50
2022/03/18 00:29:52;;;;;;;53.50;27.83;;;;;;;4.40;62.99;103255.44;4967524;28;20078;-52
2022/03/18 00:32:18;;;;;;;46.90;24.45;;;;;;;4.40;62.93;103264.03;4966715;28;20050;-51
2022/03/18 00:34:45;;;;;;;49.72;26.50;;;;;;;4.38;62.71;103265.63;4967173;28;20507;-51
2022/03/18 00:37:11;;;;;;;42.35;23.20;;;;;;;4.37;62.89;103262.97;4966849;28;20047;-50
2022/03/18 00:39:38;;;;;;;43.75;24.17;;;;;;;4.36;62.52;103267.25;4967861;28;20062;-50
2022/03/18 00:42:11;;;;;;;39.75;22.27;;;;;;;4.33;63.13;103256.78;4968141;28;20469;-51
2022/03/18 00:44:37;;;;;;;47.45;23.48;;;;;;;4.32;63.27;103260.16;4967946;28;20054;-53
2022/03/18 00:51:58;;;;;;;43.10;24.13;;;;;;;4.30;62.90;103266.00;4967473;28;20054;-54
2022/03/18 00:52:34;;;;;;;51.58;27.65;;;;;;;4.27;63.55;103265.81;4967901;28;20452;-51
2022/03/18 00:55:01;;;;;;;46.30;24.98;;;;;;;4.25;63.24;103270.88;4968078;28;20137;-52
2022/03/18 00:57:29;;;;;;;44.65;25.02;;;;;;;4.22;63.17;103268.13;4967201;28;20050;-52
2022/03/18 00:59:55;;;;;;;42.90;25.58;;;;;;;4.20;63.35;103272.28;4967607;28;20503;-52
2022/03/18 01:02:21;;;;;;;44.10;24.45;;;;;;;4.16;63.54;103277.13;4967561;28;20055;-52
2022/03/18 01:04:49;;;;;;;42.85;23.92;;;;;;;4.13;63.06;103272.69;4968234;28;20488;-51
2022/03/18 01:07:16;;;;;;;45.33;24.95;;;;;;;4.09;63.80;103276.78;4967969;28;20055;-51
2022/03/18 01:09:42;;;;;;;39.35;23.92;;;;;;;4.04;63.47;103274.75;4967337;28;20780;-51
2022/03/18 01:12:10;;;;;;;39.67;22.30;;;;;;;4.02;64.07;103273.75;4967344;28;20055;-54
2022/03/18 01:14:38;;;;;;;43.72;24.50;;;;;;;4.00;63.72;103275.34;4967577;28;20065;-52
2022/03/18 01:17:05;;;;;;;47.97;24.38;;;;;;;3.96;63.74;103274.28;4966996;28;20047;-52
2022/03/18 01:19:31;;;;;;;39.75;22.30;;;;;;;3.96;63.92;103278.53;4967006;28;20058;-51
2022/03/18 01:21:58;;;;;;;40.05;23.00;;;;;;;3.92;63.75;103280.03;4967410;28;20151;-49
2022/03/18 01:24:24;;;;;;;42.42;22.70;;;;;;;3.89;64.58;103271.28;4966576;28;20059;-51
2022/03/18 01:26:51;;;;;;;45.40;24.02;;;;;;;3.87;63.87;103284.00;4967125;28;20055;-51
2022/03/18 01:29:17;;;;;;;45.58;23.52;;;;;;;3.85;64.52;103277.03;4967147;28;20053;-50
2022/03/18 01:31:45;;;;;;;38.78;22.52;;;;;;;3.82;64.32;103279.41;4966619;28;20059;-53
2022/03/18 01:34:11;;;;;;;41.25;21.73;;;;;;;3.78;64.86;103286.03;4966821;28;20550;-53
2022/03/18 01:36:38;;;;;;;42.67;21.20;;;;;;;3.74;64.89;103289.22;4965273;28;20058;-52
2022/03/18 01:39:05;;;;;;;40.20;23.02;;;;;;;3.70;64.50;103287.25;4965333;28;20197;-50
2022/03/18 01:41:32;;;;;;;42.15;20.95;;;;;;;3.64;64.08;103285.22;4966363;28;20053;-53
2022/03/18 01:43:59;;;;;;;43.20;23.30;;;;;;;3.61;64.61;103285.00;4965264;28;20153;-52
2022/03/18 01:46:25;;;;;;;43.80;22.27;;;;;;;3.57;64.70;103283.03;4966628;28;20050;-50
2022/03/18 01:48:53;;;;;;;46.17;24.65;;;;;;;3.55;64.97;103284.63;4966795;28;20475;-50
2022/03/18 01:51:21;;;;;;;42.63;24.23;;;;;;;3.51;65.09;103285.25;4966654;28;20133;-48
2022/03/18 01:54:43;;;;;;;37.67;21.83;;;;;;;3.51;64.80;103290.38;4966243;28;20150;-49
2022/03/18 01:56:35;;;;;;;41.08;22.27;;;;;;;3.48;64.67;103288.50;4966920;28;20421;-49
2022/03/18 01:59:01;;;;;;;43.25;23.55;;;;;;;3.48;64.45;103292.75;4965817;28;20051;-52
2022/03/18 02:01:28;;;;;;;49.03;24.05;;;;;;;3.48;64.91;103287.63;4967831;28;20066;-48
2022/03/18 02:03:56;;;;;;;40.78;22.20;;;;;;;3.48;64.65;103303.00;4966894;28;20404;-52
2022/03/18 02:06:23;;;;;;;46.35;23.92;;;;;;;3.49;64.40;103297.09;4966015;28;20059;-51
2022/03/18 02:08:50;;;;;;;38.17;21.45;;;;;;;3.49;64.71;103299.66;4966029;28;20881;-50
2022/03/18 02:11:16;;;;;;;43.40;22.48;;;;;;;3.48;64.26;103303.00;4966165;28;20140;-52
2022/03/18 02:13:43;;;;;;;39.65;21.70;;;;;;;3.46;64.46;103296.91;4966441;28;20540;-51
2022/03/18 02:16:09;;;;;;;46.85;24.63;;;;;;;3.43;64.32;103304.41;4966585;28;20393;-50
2022/03/18 02:18:36;;;;;;;43.15;23.02;;;;;;;3.42;65.07;103305.19;4965372;28;20058;-52
2022/03/18 02:21:04;;;;;;;38.90;22.00;;;;;;;3.41;64.72;103306.00;4966077;28;20061;-51
2022/03/18 02:23:31;;;;;;;38.78;23.05;;;;;;;3.40;64.89;103309.34;4966275;28;20058;-52
2022/03/18 02:25:58;;;;;;;39.97;24.20;;;;;;;3.37;65.25;103309.16;4962847;28;20054;-53
2022/03/18 02:28:24;;;;;;;42.50;22.35;;;;;;;3.35;65.09;103315.88;4965911;28;20054;-50
2022/03/18 02:30:51;;;;;;;40.00;23.63;;;;;;;3.32;65.38;103315.69;4966247;28;20117;-53
2022/03/18 02:33:17;;;;;;;38.63;21.38;;;;;;;3.32;65.46;103315.69;4966480;28;20524;-50
2022/03/18 02:35:43;;;;;;;40.83;21.42;;;;;;;3.30;64.98;103322.38;4965076;28;20595;-52
2022/03/18 02:38:10;;;;;;;43.53;23.25;;;;;;;3.28;65.35;103319.72;4965778;28;20043;-50
2022/03/18 02:40:38;;;;;;;41.38;22.73;;;;;;;3.29;64.76;103325.75;4964202;28;20101;-50
2022/03/18 02:43:04;;;;;;;41.88;22.85;;;;;;;3.28;65.70;103329.09;4965526;28;20872;-50
2022/03/18 02:45:31;;;;;;;39.63;22.02;;;;;;;3.26;65.65;103325.56;4965221;28;20058;-52
2022/03/18 02:47:58;;;;;;;44.10;22.25;;;;;;;3.22;65.12;103327.03;4963982;28;20500;-52
2022/03/18 02:50:24;;;;;;;42.42;23.30;;;;;;;3.20;64.96;103330.28;4965869;28;20055;-50
2022/03/18 02:52:51;;;;;;;41.00;23.30;;;;;;;3.19;65.68;103333.66;4966259;28;20046;-52
2022/03/18 02:55:18;;;;;;;37.05;21.77;;;;;;;3.15;65.50;103336.03;4965492;28;20072;-50
2022/03/18 02:57:46;;;;;;;41.47;23.02;;;;;;;3.14;65.22;103335.94;4965101;28;20145;-50
2022/03/18 03:00:13;;;;;;;38.58;21.55;;;;;;;3.13;65.28;103335.03;4964743;28;20055;-52
2022/03/18 03:02:39;;;;;;;37.55;20.90;;;;;;;3.12;65.63;103338.41;4965060;28;20538;-53
2022/03/18 03:08:02;;;;;;;43.30;23.90;;;;;;;3.08;65.89;103341.53;4965115;28;20062;-53
2022/03/18 03:10:30;;;;;;;47.15;23.10;;;;;;;3.06;65.67;103348.22;4965255;28;20061;-50
2022/03/18 03:12:59;;;;;;;42.80;22.50;;;;;;;3.02;65.36;103346.25;4965066;28;20674;-51
2022/03/18 03:15:25;;;;;;;41.50;22.25;;;;;;;2.99;65.63;103356.31;4965347;28;20054;-53
2022/03/18 03:17:52;;;;;;;39.60;22.13;;;;;;;2.94;65.57;103352.56;4963599;28;20039;-51
2022/03/18 03:20:18;;;;;;;41.60;22.27;;;;;;;2.88;65.80;103356.41;4965242;28;20743;-50
2022/03/18 03:22:45;;;;;;;35.67;20.35;;;;;;;2.82;65.37;103351.78;4965250;28;20047;-53
2022/03/18 03:25:11;;;;;;;38.17;20.75;;;;;;;2.80;65.51;103348.25;4963729;28;20059;-50
2022/03/18 03:27:38;;;;;;;37.65;21.90;;;;;;;2.76;65.92;103351.41;4965193;28;20055;-51
2022/03/18 03:30:08;;;;;;;41.08;20.77;;;;;;;2.72;65.67;103354.53;4963518;28;20138;-48
2022/03/18 03:32:35;;;;;;;38.38;20.58;;;;;;;2.66;66.11;103360.16;4965172;28;20050;-52
2022/03/18 03:35:01;;;;;;;36.63;19.30;;;;;;;2.62;65.90;103357.28;4963260;28;20058;-51
2022/03/18 03:37:29;;;;;;;37.78;20.58;;;;;;;2.59;66.09;103354.50;4964696;28;20058;-50
2022/03/18 03:39:56;;;;;;;42.60;21.73;;;;;;;2.57;66.08;103363.75;4963572;28;20102;-52
2022/03/18 03:42:22;;;;;;;39.63;19.63;;;;;;;2.52;66.12;103366.91;4964861;28;20793;-50
2022/03/18 03:44:49;;;;;;;39.25;20.27;;;;;;;2.49;66.13;103369.25;4965033;28;20047;-51
2022/03/18 03:47:18;;;;;;;39.00;21.05;;;;;;;2.45;66.38;103369.84;4964012;28;20053;-49
2022/03/18 03:49:45;;;;;;;34.90;19.58;;;;;;;2.44;66.19;103377.44;4964525;28;20054;-48
2022/03/18 03:52:11;;;;;;;38.45;21.63;;;;;;;2.40;66.40;103371.22;4963153;28;20178;-51
2022/03/18 03:54:39;;;;;;;38.47;21.00;;;;;;;2.36;67.02;103383.72;4964190;28;20058;-53
2022/03/18 03:57:06;;;;;;;37.00;20.75;;;;;;;2.31;66.92;103380.84;4964953;28;20053;-51
2022/03/18 03:59:32;;;;;;;39.60;22.02;;;;;;;2.25;66.88;103375.31;4963844;28;20046;-52
2022/03/18 04:01:58;;;;;;;37.63;20.17;;;;;;;2.24;67.00;103377.78;4963903;28;20050;-51
2022/03/18 04:04:27;;;;;;;39.53;19.73;;;;;;;2.21;66.62;103384.47;4964346;28;20050;-50
2022/03/18 04:06:54;;;;;;;35.55;20.25;;;;;;;2.17;66.78;103382.47;4964185;28;20054;-51
2022/03/18 04:09:20;;;;;;;37.65;20.40;;;;;;;2.16;66.94;103387.50;4964183;28;20047;-50
2022/03/18 04:11:47;;;;;;;35.28;19.90;;;;;;;2.11;66.89;103396.53;4964496;28;20424;-50
2022/03/18 04:14:14;;;;;;;34.70;19.58;;;;;;;2.09;66.84;103395.53;4964470;28;20046;-50
2022/03/18 04:16:40;;;;;;;36.88;19.48;;;;;;;2.07;66.87;103389.41;4963641;28;20057;-51
2022/03/18 04:19:07;;;;;;;36.15;18.90;;;;;;;2.05;66.75;103406.31;4964034;28;20055;-51
2022/03/18 04:21:35;;;;;;;34.03;18.85;;;;;;;2.04;66.98;103412.22;4964203;28;20089;-50
2022/03/18 04:24:01;;;;;;;40.38;20.60;;;;;;;2.02;66.90;103416.34;4964622;28;20077;-50
2022/03/18 04:26:28;;;;;;;38.47;20.88;;;;;;;2.00;67.19;103417.91;4964699;28;20062;-51
2022/03/18 04:28:54;;;;;;;41.42;20.88;;;;;;;2.01;67.19;103419.69;4962431;28;20055;-49
2022/03/18 04:31:21;;;;;;;37.80;19.65;;;;;;;1.97;67.06;103412.56;4964002;28;20055;-53
2022/03/18 04:33:47;;;;;;;35.42;19.23;;;;;;;1.94;66.91;103422.59;4963954;28;20114;-52
2022/03/18 04:36:14;;;;;;;34.38;19.42;;;;;;;1.88;67.00;103418.84;4962066;28;20058;-49
2022/03/18 04:38:41;;;;;;;34.70;18.55;;;;;;;1.83;67.09;103429.53;4961457;28;20050;-49
2022/03/18 04:41:08;;;;;;;33.67;18.70;;;;;;;1.79;66.85;103423.31;4963370;28;20079;-51
2022/03/18 04:43:34;;;;;;;31.63;17.98;;;;;;;1.79;66.77;103419.88;4963567;28;20133;-51
2022/03/18 04:46:01;;;;;;;40.65;19.00;;;;;;;1.76;66.84;103428.22;4963880;28;20054;-51
2022/03/18 04:48:27;;;;;;;36.22;18.40;;;;;;;1.75;66.83;103433.22;4963580;28;20050;-53
2022/03/18 04:50:54;;;;;;;32.38;17.30;;;;;;;1.76;66.81;103440.13;4963100;28;20058;-52
2022/03/18 04:53:20;;;;;;;34.95;17.58;;;;;;;1.76;66.68;103441.00;4963831;28;20054;-50
2022/03/18 04:55:48;;;;;;;35.72;17.73;;;;;;;1.74;66.66;103428.88;4964057;28;20051;-49
2022/03/18 04:58:14;;;;;;;32.83;18.73;;;;;;;1.72;66.51;103439.00;4963498;28;20078;-53
2022/03/18 05:00:41;;;;;;;37.20;18.27;;;;;;;1.74;66.53;103444.22;4967340;28;20051;-49
2022/03/18 05:03:10;;;;;;;36.85;17.83;;;;;;;1.74;66.31;103450.22;4965400;28;20047;-52
2022/03/18 05:05:37;;;;;;;46.63;19.35;;;;;;;1.75;66.32;103441.78;4967483;28;20058;-54
2022/03/18 05:08:03;;;;;;;35.55;18.08;;;;;;;1.75;66.00;103454.56;4967182;28;20059;-52
2022/03/18 05:10:30;;;;;;;33.72;17.42;;;;;;;1.78;66.25;103452.22;4966953;28;20515;-52
2022/03/18 05:12:58;;;;;;;39.22;18.30;;;;;;;1.76;66.09;103453.78;4967217;28;20412;-53
2022/03/18 05:15:25;;;;;;;35.88;19.38;;;;;;;1.78;66.29;103452.22;4966688;28;20062;-54
2022/03/18 05:17:54;;;;;;;34.83;17.88;;;;;;;1.80;66.03;103465.13;4967191;28;20109;-50
2022/03/18 05:20:21;;;;;;;39.90;18.20;;;;;;;1.81;66.05;103462.66;4967046;28;20051;-52
2022/03/18 05:22:47;;;;;;;37.25;18.27;;;;;;;1.83;65.54;103461.09;4967121;28;20050;-50
2022/03/18 05:25:14;;;;;;;37.00;18.45;;;;;;;1.85;65.65;103466.34;4967097;28;20082;-49
2022/03/18 05:27:43;;;;;;;38.65;18.33;;;;;;;1.88;65.52;103464.00;4966590;28;20054;-49
2022/03/18 05:30:12;;;;;;;35.75;17.70;;;;;;;1.92;65.00;103459.97;4966671;28;20066;-50
2022/03/18 05:32:40;;;;;;;33.92;17.77;;;;;;;1.98;65.08;103462.97;4966444;28;20050;-51
2022/03/18 05:35:07;;;;;;;36.15;18.55;;;;;;;1.99;64.93;103467.28;4966584;28;20078;-52
2022/03/18 05:37:33;;;;;;;40.05;17.88;;;;;;;2.02;64.70;103467.50;4966784;28;20079;-49
2022/03/18 05:40:00;;;;;;;32.33;17.35;;;;;;;2.03;64.10;103475.28;4965299;28;20054;-52
2022/03/18 05:42:26;;;;;;;33.97;17.35;;;;;;;2.10;64.47;103476.63;4966665;28;20055;-51
2022/03/18 05:44:53;;;;;;;32.67;18.95;;;;;;;2.13;64.12;103477.72;4966639;28;20062;-52
2022/03/18 05:47:21;;;;;;;38.30;19.05;;;;;;;2.19;63.80;103482.38;4967600;28;20066;-49
2022/03/18 05:49:47;;;;;;;34.80;17.83;;;;;;;2.24;64.00;103482.72;4967472;28;20468;-48
2022/03/18 05:52:14;;;;;;;31.77;17.08;;;;;;;2.30;63.65;103490.81;4966526;28;20805;-51
2022/03/18 05:54:40;;;;;;;31.92;17.17;;;;;;;2.37;63.57;103493.00;4963940;28;20510;-53
2022/03/18 05:57:06;;;;;;;31.60;16.98;;;;;;;2.43;63.01;103494.31;4966156;28;20062;-49
2022/03/18 05:59:35;;;;;;;36.20;17.55;;;;;;;2.54;63.07;103493.34;4965779;28;20054;-53
2022/03/18 06:02:01;;;;;;;34.17;17.98;;;;;;;2.66;62.79;103497.56;4965902;28;20046;-52
2022/03/18 06:04:31;;;;;;;34.50;17.27;;;;;;;2.80;62.22;103496.81;4966010;28;20053;-53
2022/03/18 06:06:58;;;;;;;36.20;16.63;;;;;;;2.91;61.59;103495.84;4966353;28;20448;-53
2022/03/18 06:12:10;;;;;;;32.65;16.08;;;;;;;3.09;59.26;103491.94;4965681;28;20177;-52
2022/03/18 06:14:36;;;;;;;30.92;15.63;;;;;;;3.19;58.77;103502.84;4965632;28;20524;-52
2022/03/18 06:17:05;;;;;;;38.28;18.05;;;;;;;3.25;57.46;103513.47;4966020;28;20055;-54
2022/03/18 06:19:33;;;;;;;54.40;26.88;;;;;;;3.34;57.00;103519.22;4965061;28;20051;-53
2022/03/18 06:22:00;;;;;;;82.55;40.17;;;;;;;3.43;57.37;103519.81;4964850;28;20455;-50
2022/03/18 06:24:27;;;;;;;32.75;18.00;;;;;;;3.54;56.35;103520.50;4965752;28;20055;-49
2022/03/18 06:26:54;;;;;;;33.33;17.23;;;;;;;3.66;56.73;103524.75;4965819;28;20058;-51
2022/03/18 06:29:21;;;;;;;28.65;15.88;;;;;;;3.83;55.98;103517.25;4965728;28;20777;-50
2022/03/18 06:31:49;;;;;;;29.23;16.27;;;;;;;3.99;55.16;103530.25;4965616;28;20061;-53
2022/03/18 06:34:15;;;;;;;33.15;15.55;;;;;;;4.17;55.20;103530.53;4965215;28;20062;-52
2022/03/18 06:36:43;;;;;;;34.97;14.10;;;;;;;4.36;54.71;103534.31;4965327;28;20129;-50
2022/03/18 06:39:10;;;;;;;37.10;18.00;;;;;;;4.53;54.55;103537.03;4965215;28;20058;-51
2022/03/18 06:41:36;;;;;;;32.33;17.70;;;;;;;4.73;54.00;103541.72;4965284;28;20535;-52
2022/03/18 06:44:04;;;;;;;30.13;15.35;;;;;;;4.91;52.46;103547.94;4965268;28;20459;-52
2022/03/18 06:46:30;;;;;;;35.53;15.43;;;;;;;5.09;52.26;103543.00;4965207;28;20055;-51
2022/03/18 06:48:56;;;;;;;44.88;20.20;;;;;;;5.28;51.47;103544.97;4965363;28;20139;-54
2022/03/18 06:51:23;;;;;;;39.55;19.88;;;;;;;5.43;49.92;103543.28;4965611;28;20050;-54
2022/03/18 06:53:51;;;;;;;24.75;13.50;;;;;;;5.60;49.39;103539.97;4964401;28;20058;-50
2022/03/18 06:56:17;;;;;;;29.05;14.75;;;;;;;5.82;49.14;103538.63;4964206;28;20055;-53
2022/03/18 06:58:44;;;;;;;27.35;14.00;;;;;;;5.96;48.63;103542.88;4965159;28;20061;-51
2022/03/18 07:01:10;;;;;;;26.30;14.50;;;;;;;6.03;46.98;103546.66;4965350;28;20055;-52
2022/03/18 07:03:37;;;;;;;31.70;14.90;;;;;;;6.12;46.54;103553.19;4964694;28;20058;-49
2022/03/18 07:06:03;;;;;;;30.70;14.63;;;;;;;6.17;46.10;103544.03;4965302;28;20059;-52
2022/03/18 07:08:30;;;;;;;31.92;16.10;;;;;;;6.23;45.80;103557.25;4965699;28;20058;-50
2022/03/18 07:10:58;;;;;;;42.53;18.38;;;;;;;6.29;45.92;103552.44;4965109;28;20779;-52
2022/03/18 07:13:24;;;;;;;41.63;18.75;;;;;;;6.38;45.22;103556.31;4964392;28;20547;-51
2022/03/18 07:15:51;;;;;;;45.85;22.77;;;;;;;6.49;44.43;103566.41;4963966;28;20047;-57
2022/03/18 07:18:16;;;;;;;34.20;17.23;;;;;;;6.63;44.87;103549.06;4951785;28;20050;-53
2022/03/18 07:20:43;;;;;;;34.90;17.33;;;;;;;6.81;44.73;103557.78;4960797;28;20066;-50
2022/03/18 07:23:12;;;;;;;23.63;12.82;;;;;;;6.87;43.58;103562.38;4962310;28;20459;-50
2022/03/18 07:25:40;;;;;;;31.15;15.57;;;;;;;6.88;43.25;103559.88;4961789;28;20046;-49
2022/03/18 07:28:09;;;;;;;32.20;16.52;;;;;;;6.93;43.66;103560.13;4962659;28;20508;-60
2022/03/18 07:30:37;;;;;;;34.03;16.92;;;;;;;7.00;43.66;103563.88;4963546;28;20047;-58
2022/03/18 07:33:04;;;;;;;31.05;18.60;;;;;;;7.10;43.45;103566.13;4963263;28;20058;-59
2022/03/18 07:35:31;;;;;;;23.33;13.85;;;;;;;7.15;42.64;103557.81;4963207;28;20144;-56
2022/03/18 07:37:57;;;;;;;25.92;15.45;;;;;;;7.26;42.31;103560.91;4962437;28;20059;-58
2022/03/18 07:40:25;;;;;;;48.53;16.08;;;;;;;7.41;42.20;103556.56;4963617;28;20065;-59
2022/03/18 07:42:53;;;;;;;33.17;17.15;;;;;;;7.50;42.15;103562.16;4963223;28;20050;-58
2022/03/18 07:45:22;;;;;;;28.77;15.00;;;;;;;7.68;41.68;103561.28;4962915;28;20062;-59
2022/03/18 07:47:50;;;;;;;36.95;16.90;;;;;;;7.85;41.28;103557.84;4964125;28;20058;-58
2022/03/18 07:50:20;;;;;;;25.10;12.00;;;;;;;7.99;40.35;103558.47;4964725;28;20505;-53
2022/03/18 07:52:49;;;;;;;31.08;13.23;;;;;;;8.13;40.92;103552.25;4962134;28;20512;-53
2022/03/18 07:55:15;;;;;;;23.20;12.50;;;;;;;8.40;40.39;103557.84;4962755;28;20089;-55
2022/03/18 07:57:42;;;;;;;26.35;12.27;;;;;;;8.65;40.31;103565.88;4963036;28;20055;-56
2022/03/18 08:00:10;;;;;;;18.38;11.05;;;;;;;8.89;39.38;103565.22;4962412;28;20141;-58
2022/03/18 08:02:38;;;;;;;27.40;12.02;;;;;;;9.11;38.45;103563.63;4962232;28;20468;-57
2022/03/18 08:05:05;;;;;;;22.42;10.13;;;;;;;9.29;37.65;103566.09;4962645;28;20066;-57
2022/03/18 08:07:33;;;;;;;29.17;11.40;;;;;;;9.54;37.69;103569.72;4962652;28;20057;-57
2022/03/18 08:09:59;;;;;;;22.15;10.65;;;;;;;9.80;38.07;103569.03;4961548;28;20058;-56
2022/03/18 08:12:27;;;;;;;25.42;12.57;;;;;;;9.97;36.46;103573.22;4962198;28;20463;-59
2022/03/18 08:14:55;;;;;;;17.17;12.00;;;;;;;10.15;36.36;103575.63;4962255;28;20413;-58
2022/03/18 08:17:21;;;;;;;19.83;11.35;;;;;;;10.20;35.09;103575.78;4959656;28;20050;-59
2022/03/18 08:19:50;;;;;;;17.92;11.38;;;;;;;10.42;34.81;103573.25;4962452;28;20072;-57
2022/03/18 08:22:16;;;;;;;20.98;10.35;;;;;;;10.73;34.66;103581.31;4959267;28;20051;-58
2022/03/18 08:24:42;;;;;;;18.90;10.95;;;;;;;10.97;33.38;103575.25;4961611;28;20062;-58
2022/03/18 08:27:09;;;;;;;17.80;10.95;;;;;;;11.21;34.08;103575.19;4962283;28;20057;-67
2022/03/18 08:29:35;;;;;;;18.98;11.40;;;;;;;11.41;33.35;103578.47;4964960;28;20047;-65
2022/03/18 08:32:02;;;;;;;16.25;10.98;;;;;;;11.56;33.37;103584.19;4963351;28;20055;-57
2022/03/18 08:34:28;;;;;;;17.88;11.05;;;;;;;11.79;32.98;103587.56;4964178;28;20070;-55
2022/03/18 08:36:56;;;;;;;21.23;11.90;;;;;;;12.03;32.44;103590.06;4964659;28;20046;-56
2022/03/18 08:39:22;;;;;;;18.80;11.93;;;;;;;12.09;32.03;103588.53;4965692;28;20055;-56
2022/03/18 08:41:50;;;;;;;18.75;11.70;;;;;;;12.17;32.24;103587.03;4966253;28;20043;-57
2022/03/18 08:44:19;;;;;;;23.50;13.20;;;;;;;12.33;32.11;103593.59;4965629;28;20506;-53
2022/03/18 08:46:46;;;;;;;23.52;13.00;;;;;;;12.40;31.84;103589.44;4965811;28;20131;-53
2022/03/18 08:49:12;;;;;;;17.27;11.30;;;;;;;12.34;31.19;103584.94;4967285;28;20047;-55
2022/03/18 08:51:39;;;;;;;27.27;15.40;;;;;;;12.39;31.44;103587.69;4967631;28;20480;-55
2022/03/18 08:54:07;;;;;;;27.85;15.23;;;;;;;12.39;31.25;103588.56;4968176;28;20057;-55
2022/03/18 08:56:33;;;;;;;21.88;12.07;;;;;;;12.44;31.24;103591.28;4966499;28;20060;-59
2022/03/18 08:59:03;;;;;;;24.25;11.43;;;;;;;12.49;31.22;103589.75;4965457;28;20059;-58
2022/03/18 09:01:29;;;;;;;17.33;10.65;;;;;;;12.55;30.32;103585.59;4968970;28;20436;-57
2022/03/18 09:03:56;;;;;;;20.95;10.35;;;;;;;12.67;29.98;103589.38;4965888;28;21116;-57
2022/03/18 09:06:22;;;;;;;20.65;10.57;;;;;;;12.73;30.07;103590.44;4964421;28;20065;-53
2022/03/18 09:08:49;;;;;;;23.35;12.75;;;;;;;12.81;29.88;103593.25;4965458;28;20413;-57
2022/03/18 09:11:17;;;;;;;22.27;12.73;;;;;;;12.88;29.69;103598.66;4964915;28;20057;-57
2022/03/18 09:13:44;;;;;;;22.88;12.00;;;;;;;12.91;29.87;103601.34;4964281;28;20053;-56
2022/03/18 09:16:11;;;;;;;29.30;14.68;;;;;;;12.93;29.48;103598.78;4965088;28;20085;-58
2022/03/18 09:18:38;;;;;;;20.55;10.80;;;;;;;12.79;29.57;103594.91;4965888;28;20097;-54
2022/03/18 09:21:04;;;;;;;23.02;11.02;;;;;;;12.76;29.60;103594.84;4963848;28;20051;-57
2022/03/18 09:23:31;;;;;;;17.50;10.80;;;;;;;12.73;29.98;103597.34;4963940;28;20085;-56
2022/03/18 09:25:57;;;;;;;17.65;10.98;;;;;;;12.60;29.60;103607.41;4965007;28;20054;-56
2022/03/18 09:28:25;;;;;;;21.08;12.48;;;;;;;12.48;29.35;103607.03;4965746;28;20460;-50
2022/03/18 09:30:52;;;;;;;21.98;12.25;;;;;;;12.29;29.41;103602.13;4966126;28;20049;-57
2022/03/18 09:33:19;;;;;;;17.95;11.10;;;;;;;12.20;30.21;103607.06;4965498;28;20055;-54
2022/03/18 09:35:45;;;;;;;21.90;10.95;;;;;;;12.15;30.05;103613.84;4966239;28;20484;-53
2022/03/18 09:38:12;;;;;;;21.67;11.13;;;;;;;12.12;29.73;103618.94;4965400;28;20050;-55
2022/03/18 09:40:41;;;;;;;20.40;12.50;;;;;;;12.11;30.09;103617.19;4959241;28;20055;-55
2022/03/18 09:43:09;;;;;;;18.52;12.02;;;;;;;12.11;29.92;103617.19;4961636;28;20071;-55
2022/03/18 09:45:39;;;;;;;20.63;11.68;;;;;;;12.11;29.85;103622.38;4961422;28;20073;-56
2022/03/18 09:48:09;;;;;;;75.95;15.80;;;;;;;12.11;29.89;103619.78;4963647;28;20043;-54
2022/03/18 09:50:36;;;;;;;20.42;11.15;;;;;;;12.15;30.15;103619.03;4961493;28;20161;-54
2022/03/18 09:53:03;;;;;;;20.90;11.32;;;;;;;12.18;29.48;103620.00;4962557;28;20051;-56
2022/03/18 09:55:31;;;;;;;20.60;10.48;;;;;;;12.28;29.50;103626.38;4959780;28;20062;-55
2022/03/18 09:57:57;;;;;;;29.35;12.50;;;;;;;12.37;29.36;103621.44;4961723;28;20086;-55
2022/03/18 10:00:24;;;;;;;16.42;10.18;;;;;;;12.50;28.85;103623.59;4961575;28;20493;-54
2022/03/18 10:03:08;;;;;;;16.52;10.52;;;;;;;12.66;28.67;103626.66;4961483;28;20457;-57
2022/03/18 10:05:35;;;;;;;16.80;10.70;;;;;;;12.77;28.93;103630.44;4963305;28;20062;-54
2022/03/18 10:08:01;;;;;;;16.58;10.55;;;;;;;12.86;28.12;103633.28;4961141;28;20047;-48
2022/03/18 10:10:28;;;;;;;21.00;11.18;;;;;;;12.90;28.46;103636.03;4962395;28;20046;-53
2022/03/18 10:12:57;;;;;;;19.77;10.43;;;;;;;13.00;28.72;103637.16;4961421;28;20054;-57
2022/03/18 10:15:26;;;;;;;15.48;10.30;;;;;;;13.11;28.49;103630.56;4961814;28;20534;-57
2022/03/18 10:17:56;;;;;;;17.67;10.10;;;;;;;13.19;28.17;103634.28;4961951;28;20059;-57
2022/03/18 10:20:24;;;;;;;16.58;9.73;;;;;;;13.15;27.67;103637.59;4959589;28;20582;-57
2022/03/18 10:22:51;;;;;;;19.23;10.10;;;;;;;13.23;27.69;103641.31;4962780;28;20105;-58
2022/03/18 10:25:38;;;;;;;16.20;10.57;;;;;;;13.33;27.21;103641.56;4961895;28;20050;-57
2022/03/18 10:28:05;;;;;;;22.42;10.70;;;;;;;13.41;27.61;103640.03;4962640;28;20051;-49
2022/03/18 10:30:32;;;;;;;21.27;10.27;;;;;;;13.47;27.68;103640.19;4960100;28;20057;-50
2022/03/18 10:33:01;;;;;;;16.40;10.43;;;;;;;13.50;27.28;103645.47;4964054;28;20074;-50
2022/03/18 10:38:27;;;;;;;16.65;10.50;;;;;;;13.50;26.95;103632.44;4962038;28;20133;-49
2022/03/18 10:40:55;;;;;;;18.40;9.85;;;;;;;13.49;27.02;103628.97;4963710;28;20150;-51
2022/03/18 10:43:22;;;;;;;29.02;10.48;;;;;;;13.55;27.18;103628.28;4962720;28;20063;-56
2022/03/18 10:46:02;;;;;;;31.40;11.07;;;;;;;13.64;26.57;103636.31;4962264;28;20054;-56
2022/03/18 10:48:30;;;;;;;16.63;9.80;;;;;;;13.64;26.65;103638.91;4962662;28;20066;-56
2022/03/18 10:51:05;;;;;;;20.70;10.73;;;;;;;13.64;27.05;103632.81;4962452;28;20051;-56
2022/03/18 10:53:32;;;;;;;15.30;9.40;;;;;;;13.70;27.26;103641.69;4961455;28;20055;-58
2022/03/18 10:56:01;;;;;;;21.30;9.77;;;;;;;13.70;27.06;103639.06;4961573;28;20162;-58
2022/03/18 10:58:31;;;;;;;22.92;9.93;;;;;;;13.76;26.85;103641.84;4962364;28;20086;-50
2022/03/18 11:01:01;;;;;;;23.38;8.57;;;;;;;13.86;26.43;103641.19;4961616;28;20051;-52
2022/03/18 11:03:28;;;;;;;16.55;9.63;;;;;;;13.85;25.93;103644.66;4960602;28;20051;-55
2022/03/18 11:05:58;;;;;;;17.35;8.98;;;;;;;13.90;26.22;103640.44;4963192;28;20065;-54
2022/03/18 11:08:35;;;;;;;18.67;8.98;;;;;;;13.96;26.12;103646.63;4963214;28;20059;-61
2022/03/18 11:11:07;;;;;;;14.40;9.80;;;;;;;14.01;26.15;103647.63;4961669;28;20312;-59
2022/03/18 11:13:40;;;;;;;37.15;10.57;;;;;;;14.04;26.14;103639.88;4963031;28;20133;-58
2022/03/18 11:16:10;;;;;;;25.95;8.82;;;;;;;14.01;25.73;103642.41;4963010;28;20051;-57
2022/03/18 11:18:37;;;;;;;14.77;9.35;;;;;;;13.97;25.44;103643.19;4964007;28;20063;-55
2022/03/18 11:21:09;;;;;;;13.63;8.40;;;;;;;13.96;25.60;103651.84;4961775;28;20531;-56
2022/03/18 11:23:40;;;;;;;15.77;9.00;;;;;;;13.94;25.92;103637.91;4963094;28;20050;-57
2022/03/18 11:26:08;;;;;;;13.88;7.97;;;;;;;13.97;26.53;103635.34;4964205;28;20137;-59